createdAt,value
2022-12-16T00:01:25.941Z,1.37
2022-12-16T00:03:55.436Z,1.34
2022-12-16T00:06:24.140Z,1.34
2022-12-16T00:08:52.119Z,1.33
2022-12-16T00:11:20.880Z,1.37
2022-12-16T00:13:48.721Z,1.37
2022-12-16T00:16:17.972Z,1.40
2022-12-16T00:18:46.526Z,1.37
2022-12-16T00:21:19.736Z,1.37
2022-12-16T00:23:47.609Z,1.40
2022-12-16T00:26:15.601Z,1.39
2022-12-16T00:28:44.959Z,1.42
2022-12-16T00:31:12.872Z,1.37
2022-12-16T00:33:40.782Z,1.38
2022-12-16T00:36:09.067Z,1.36
2022-12-16T00:38:37.010Z,1.35
2022-12-16T00:41:04.758Z,1.34
2022-12-16T00:43:33.249Z,1.33
2022-12-16T00:46:01.476Z,1.30
2022-12-16T00:48:29.507Z,1.29
2022-12-16T00:50:57.301Z,1.28
2022-12-16T00:53:25.681Z,1.29
2022-12-16T00:56:02.199Z,1.29
2022-12-16T00:58:30.054Z,1.28
2022-12-16T01:00:57.942Z,1.29
2022-12-16T01:03:25.901Z,1.31
2022-12-16T01:05:53.788Z,1.30
2022-12-16T01:08:22.114Z,1.31
2022-12-16T01:10:56.857Z,1.29
2022-12-16T01:13:25.874Z,1.30
2022-12-16T01:15:53.727Z,1.29
2022-12-16T01:18:21.793Z,1.27
2022-12-16T01:20:49.521Z,1.28
2022-12-16T01:23:17.303Z,1.27
2022-12-16T01:25:45.126Z,1.26
2022-12-16T01:28:12.919Z,1.25
2022-12-16T01:30:40.669Z,1.27
2022-12-16T01:33:08.559Z,1.27
2022-12-16T01:35:55.628Z,1.28
2022-12-16T01:38:23.956Z,1.28
2022-12-16T01:40:52.733Z,1.28
2022-12-16T01:43:26.261Z,1.26
2022-12-16T01:45:55.555Z,1.26
2022-12-16T01:48:38.822Z,1.26
2022-12-16T01:51:09.803Z,1.28
2022-12-16T01:53:37.547Z,1.28
2022-12-16T01:56:05.329Z,1.28
2022-12-16T01:58:34.623Z,1.29
2022-12-16T02:01:04.875Z,1.31
2022-12-16T02:03:35.148Z,1.28
2022-12-16T02:06:04.394Z,1.27
2022-12-16T02:08:32.132Z,1.30
2022-12-16T02:11:41.529Z,1.30
2022-12-16T02:14:36.769Z,1.32
2022-12-16T02:17:23.000Z,1.34
2022-12-16T02:20:04.997Z,1.29
2022-12-16T02:22:44.226Z,1.26
2022-12-16T02:25:20.620Z,1.24
2022-12-16T02:28:14.988Z,1.26
2022-12-16T02:30:50.015Z,1.28
2022-12-16T02:33:48.507Z,1.29
2022-12-16T02:36:22.181Z,1.27
2022-12-16T02:39:06.851Z,1.27
2022-12-16T02:42:02.463Z,1.28
2022-12-16T02:44:42.680Z,1.27
2022-12-16T02:47:10.580Z,1.30
2022-12-16T02:49:45.374Z,1.29
2022-12-16T02:52:13.167Z,1.27
2022-12-16T02:54:41.208Z,1.27
2022-12-16T02:57:24.135Z,1.25
2022-12-16T03:00:01.231Z,1.25
2022-12-16T03:02:35.099Z,1.23
2022-12-16T03:05:16.666Z,1.24
2022-12-16T03:07:44.444Z,1.22
2022-12-16T03:10:15.383Z,1.23
2022-12-16T03:12:43.572Z,1.23
2022-12-16T03:15:11.924Z,1.25
2022-12-16T03:17:39.843Z,1.24
2022-12-16T03:20:15.454Z,1.22
2022-12-16T03:22:49.049Z,1.23
2022-12-16T03:25:17.498Z,1.23
2022-12-16T03:27:52.220Z,1.21
2022-12-16T03:30:40.570Z,1.19
2022-12-16T03:33:29.460Z,1.20
2022-12-16T03:36:06.662Z,1.21
2022-12-16T03:38:34.942Z,1.19
2022-12-16T03:41:02.785Z,1.17
2022-12-16T03:43:31.134Z,1.18
2022-12-16T03:46:02.747Z,1.19
2022-12-16T03:48:30.742Z,1.20
2022-12-16T03:50:58.541Z,1.20
2022-12-16T03:53:28.115Z,1.19
2022-12-16T03:55:56.030Z,1.20
2022-12-16T03:58:23.796Z,1.18
2022-12-16T04:00:51.832Z,1.19
2022-12-16T04:03:19.658Z,1.15
2022-12-16T04:05:47.694Z,1.19
2022-12-16T04:08:15.520Z,1.18
2022-12-16T04:11:01.827Z,1.19
2022-12-16T04:13:48.429Z,1.21
2022-12-16T04:16:35.391Z,1.20
2022-12-16T04:19:22.134Z,1.19
2022-12-16T04:22:08.340Z,1.16
2022-12-16T04:24:36.234Z,1.16
2022-12-16T04:27:22.654Z,1.15
2022-12-16T04:30:09.116Z,1.11
2022-12-16T04:32:59.798Z,1.13
2022-12-16T04:35:45.931Z,1.12
2022-12-16T04:38:32.509Z,1.16
2022-12-16T04:41:19.104Z,1.17
2022-12-16T04:44:05.537Z,1.16
2022-12-16T04:46:52.293Z,1.14
2022-12-16T04:49:38.584Z,1.10
2022-12-16T04:52:25.060Z,1.08
2022-12-16T04:55:11.440Z,1.06
2022-12-16T04:57:57.625Z,1.08
2022-12-16T05:00:44.013Z,1.08
2022-12-16T05:03:30.679Z,1.10
2022-12-16T05:06:17.359Z,1.10
2022-12-16T05:09:03.921Z,1.10
2022-12-16T05:11:50.504Z,1.10
2022-12-16T05:14:36.812Z,1.10
2022-12-16T05:17:33.710Z,1.09
2022-12-16T05:20:20.242Z,1.06
2022-12-16T05:23:06.475Z,1.03
2022-12-16T05:25:52.789Z,1.03
2022-12-16T05:28:39.140Z,1.01
2022-12-16T05:31:25.678Z,1.03
2022-12-16T05:34:11.834Z,1.04
2022-12-16T05:36:58.237Z,1.04
2022-12-16T05:39:44.974Z,1.06
2022-12-16T05:42:31.226Z,1.04
2022-12-16T05:45:17.800Z,1.03
2022-12-16T05:48:04.230Z,1.05
2022-12-16T05:50:50.377Z,1.04
2022-12-16T05:53:36.763Z,1.04
2022-12-16T05:56:22.968Z,1.04
2022-12-16T05:59:09.225Z,1.05
2022-12-16T06:01:55.832Z,1.04
2022-12-16T06:04:42.334Z,1.04
2022-12-16T06:07:28.489Z,1.06
2022-12-16T06:10:14.951Z,1.05
2022-12-16T06:13:01.465Z,1.05
2022-12-16T06:15:47.807Z,1.05
2022-12-16T06:18:34.081Z,1.05
2022-12-16T06:21:20.337Z,1.07
2022-12-16T06:24:06.910Z,1.05
2022-12-16T06:26:53.092Z,1.04
2022-12-16T06:29:39.584Z,1.05
2022-12-16T06:32:26.014Z,1.05
2022-12-16T06:35:12.345Z,1.05
2022-12-16T06:37:58.810Z,1.04
2022-12-16T06:40:45.132Z,1.02
2022-12-16T06:43:31.793Z,1.04
2022-12-16T06:46:18.541Z,1.04
2022-12-16T06:49:04.813Z,1.04
2022-12-16T06:51:51.115Z,1.08
2022-12-16T06:54:37.383Z,1.08
2022-12-16T06:57:23.663Z,1.06
2022-12-16T07:00:10.232Z,1.06
2022-12-16T07:02:56.822Z,1.02
2022-12-16T07:05:43.270Z,1.02
2022-12-16T07:08:37.469Z,1.03
2022-12-16T07:11:24.049Z,1.03
2022-12-16T07:14:10.268Z,1.02
2022-12-16T07:16:56.773Z,1.02
2022-12-16T07:19:43.273Z,1.03
2022-12-16T07:22:29.619Z,1.03
2022-12-16T07:25:16.282Z,1.04
2022-12-16T07:28:10.695Z,1.02
2022-12-16T07:31:01.440Z,1.01
2022-12-16T07:33:47.678Z,1.24
2022-12-16T07:36:34.291Z,1.76
2022-12-16T07:39:20.459Z,1.80
2022-12-16T07:42:06.887Z,2.06
2022-12-16T07:45:07.097Z,1.87
2022-12-16T07:47:53.310Z,1.77
2022-12-16T07:50:41.920Z,1.67
2022-12-16T07:53:31.240Z,1.63
2022-12-16T07:56:17.862Z,1.60
2022-12-16T07:59:04.137Z,1.54
2022-12-16T08:01:50.822Z,1.53
2022-12-16T08:04:37.344Z,1.52
2022-12-16T08:07:24.137Z,1.47
2022-12-16T08:10:10.354Z,1.43
2022-12-16T08:12:56.629Z,1.41
2022-12-16T08:16:03.026Z,1.40
2022-12-16T08:18:49.512Z,1.36
2022-12-16T08:21:35.551Z,1.37
2022-12-16T08:24:22.002Z,1.38
2022-12-16T08:27:08.539Z,1.39
2022-12-16T08:29:54.899Z,1.42
2022-12-16T08:32:41.505Z,1.43
2022-12-16T08:35:27.954Z,1.45
2022-12-16T08:38:15.515Z,1.46
2022-12-16T08:41:02.273Z,1.49
2022-12-16T08:43:55.323Z,1.54
2022-12-16T08:46:41.766Z,1.54
2022-12-16T08:49:28.033Z,1.53
2022-12-16T08:52:14.402Z,1.52
2022-12-16T08:55:00.830Z,1.47
2022-12-16T08:57:47.053Z,1.42
2022-12-16T09:00:34.054Z,1.33
2022-12-16T09:03:20.603Z,1.30
2022-12-16T09:06:07.032Z,1.39
2022-12-16T09:08:53.448Z,1.50
2022-12-16T09:11:39.866Z,1.46
2022-12-16T09:14:25.830Z,1.38
2022-12-16T09:17:12.170Z,1.36
2022-12-16T09:19:58.457Z,1.34
2022-12-16T09:22:44.852Z,1.34
2022-12-16T09:25:31.154Z,1.28
2022-12-16T09:28:17.667Z,1.27
2022-12-16T09:31:03.926Z,1.28
2022-12-16T09:33:50.612Z,1.26
2022-12-16T09:36:37.002Z,1.25
2022-12-16T09:39:23.728Z,1.28
2022-12-16T09:42:22.021Z,1.31
2022-12-16T09:45:25.566Z,1.39
2022-12-16T09:48:17.718Z,1.34
2022-12-16T09:51:04.147Z,1.31
2022-12-16T09:53:52.612Z,1.27
2022-12-16T09:56:45.361Z,1.27
2022-12-16T09:59:33.091Z,1.34
2022-12-16T10:02:19.928Z,1.37
2022-12-16T10:05:10.391Z,1.29
2022-12-16T10:08:03.207Z,1.31
2022-12-16T10:11:00.398Z,1.29
2022-12-16T10:14:19.501Z,1.29
2022-12-16T10:17:12.255Z,1.37
2022-12-16T10:20:08.726Z,1.42
2022-12-16T10:23:24.938Z,1.48
2022-12-16T10:26:15.880Z,1.40
2022-12-16T10:29:06.948Z,1.31
2022-12-16T10:31:58.436Z,1.31
2022-12-16T10:34:47.501Z,1.32
2022-12-16T10:37:36.250Z,1.37
2022-12-16T10:40:22.738Z,1.38
2022-12-16T10:43:29.940Z,1.42
2022-12-16T10:46:16.412Z,1.47
2022-12-16T10:49:02.845Z,1.47
2022-12-16T10:51:49.410Z,1.50
2022-12-16T10:54:38.931Z,1.50
2022-12-16T10:57:40.882Z,1.44
2022-12-16T11:00:35.001Z,1.53
2022-12-16T11:03:39.489Z,1.60
2022-12-16T11:06:26.576Z,1.61
2022-12-16T11:09:12.891Z,1.64
2022-12-16T11:11:59.322Z,1.67
2022-12-16T11:15:12.603Z,1.64
2022-12-16T11:17:56.417Z,1.65
2022-12-16T11:20:44.048Z,1.70
2022-12-16T11:23:38.202Z,1.75
2022-12-16T11:26:37.332Z,1.77
2022-12-16T11:29:35.074Z,1.78
2022-12-16T11:32:47.627Z,1.77
2022-12-16T11:35:36.369Z,1.83
2022-12-16T11:38:23.782Z,1.83
2022-12-16T11:41:10.029Z,1.81
2022-12-16T11:43:56.269Z,1.82
2022-12-16T11:46:46.719Z,1.77
2022-12-16T11:49:44.493Z,1.75
2022-12-16T11:52:38.651Z,1.72
2022-12-16T11:56:03.715Z,1.72
2022-12-16T11:58:51.764Z,1.69
2022-12-16T12:01:47.299Z,1.70
2022-12-16T12:04:33.958Z,1.66
2022-12-16T12:07:45.842Z,1.65
2022-12-16T12:10:55.042Z,1.65
2022-12-16T12:13:51.236Z,1.63
2022-12-16T12:40:19.801Z,1.64
2022-12-16T12:43:14.571Z,1.66
2022-12-16T12:46:33.466Z,1.68
2022-12-16T12:49:25.492Z,1.66
2022-12-16T12:52:53.295Z,1.65
2022-12-16T12:55:41.664Z,1.66
2022-12-16T12:58:28.887Z,1.60
2022-12-16T13:01:15.335Z,1.59
2022-12-16T13:04:23.358Z,1.58
2022-12-16T13:07:09.730Z,1.59
2022-12-16T13:09:57.196Z,1.62
2022-12-16T13:12:47.926Z,1.60
2022-12-16T13:15:54.884Z,1.61
2022-12-16T13:18:44.136Z,1.65
2022-12-16T13:21:58.480Z,1.63
2022-12-16T13:24:59.929Z,1.61
2022-12-16T13:27:47.609Z,1.60
2022-12-16T13:30:39.369Z,1.54
2022-12-16T13:33:53.782Z,1.57
2022-12-16T13:36:39.872Z,1.54
2022-12-16T13:40:02.032Z,1.52
2022-12-16T13:43:01.107Z,1.54
2022-12-16T13:45:57.020Z,1.54
2022-12-16T13:48:48.049Z,1.53
2022-12-16T13:51:58.864Z,1.53
2022-12-16T13:54:51.187Z,1.51
2022-12-16T13:57:38.963Z,1.50
2022-12-16T14:00:27.493Z,1.50
2022-12-16T14:03:15.948Z,1.48
2022-12-16T14:06:02.720Z,1.46
2022-12-16T14:08:51.230Z,1.45
2022-12-16T14:11:40.207Z,1.43
2022-12-16T14:14:31.092Z,1.42
2022-12-16T14:17:22.575Z,1.42
2022-12-16T14:20:31.319Z,1.43
2022-12-16T14:23:55.796Z,1.45
2022-12-16T14:26:42.941Z,1.42
2022-12-16T14:29:40.576Z,1.38
2022-12-16T14:32:45.096Z,1.36
2022-12-16T14:35:38.347Z,1.32
2022-12-16T14:38:50.884Z,1.31
2022-12-16T14:41:44.455Z,1.32
2022-12-16T14:44:44.090Z,1.34
2022-12-16T14:47:38.028Z,1.28
2022-12-16T14:50:31.473Z,1.26
2022-12-16T14:53:34.582Z,1.26
2022-12-16T14:56:40.643Z,1.27
2022-12-16T14:59:27.898Z,1.27
2022-12-16T15:02:15.565Z,1.31
2022-12-16T15:05:02.247Z,1.34
2022-12-16T15:07:53.524Z,1.32
2022-12-16T15:10:43.761Z,1.33
2022-12-16T15:13:37.734Z,1.29
2022-12-16T15:16:24.238Z,1.30
2022-12-16T15:19:17.083Z,1.27
2022-12-16T15:22:03.815Z,1.27
2022-12-16T15:24:51.205Z,1.29
2022-12-16T15:27:40.500Z,1.26
2022-12-16T15:31:02.626Z,1.26
2022-12-16T15:33:53.678Z,1.23
2022-12-16T15:36:45.956Z,1.18
2022-12-16T15:39:54.706Z,1.19
2022-12-16T15:42:49.537Z,1.14
2022-12-16T15:45:56.121Z,1.12
2022-12-16T15:48:50.893Z,1.12
2022-12-16T15:51:46.575Z,1.12
2022-12-16T15:54:37.774Z,1.14
2022-12-16T15:57:45.910Z,1.12
2022-12-16T16:00:49.097Z,1.09
2022-12-16T16:03:46.378Z,1.12
2022-12-16T16:06:43.218Z,1.10
2022-12-16T16:09:36.758Z,1.05
2022-12-16T16:12:23.130Z,1.04
2022-12-16T16:15:09.541Z,1.03
2022-12-16T16:17:56.097Z,1.01
2022-12-16T16:20:42.513Z,0.99
2022-12-16T16:23:46.666Z,0.95
2022-12-16T16:26:34.426Z,0.89
2022-12-16T16:29:20.605Z,0.89
2022-12-16T16:32:06.942Z,0.82
2022-12-16T16:34:53.282Z,0.81
2022-12-16T16:37:40.293Z,0.75
2022-12-16T16:40:41.896Z,0.74
2022-12-16T16:43:28.512Z,0.67
2022-12-16T16:46:14.817Z,0.69
2022-12-16T16:49:01.012Z,0.68
2022-12-16T16:51:47.886Z,0.65
2022-12-16T16:54:34.179Z,0.66
2022-12-16T16:57:20.847Z,0.66
2022-12-16T17:00:07.162Z,0.66
2022-12-16T17:02:53.731Z,0.64
2022-12-16T17:05:40.196Z,0.58
2022-12-16T17:08:26.661Z,0.55
2022-12-16T17:11:12.895Z,0.52
2022-12-16T17:13:59.204Z,0.55
2022-12-16T17:16:45.643Z,0.50
2022-12-16T17:19:32.951Z,0.48
2022-12-16T17:22:19.579Z,0.47
2022-12-16T17:25:05.735Z,0.51
2022-12-16T17:27:52.078Z,0.52
2022-12-16T17:30:46.559Z,0.52
2022-12-16T17:33:35.248Z,0.51
2022-12-16T17:36:21.747Z,0.53
2022-12-16T17:39:07.949Z,0.51
2022-12-16T17:41:54.343Z,0.52
2022-12-16T17:44:40.558Z,0.52
2022-12-16T17:47:26.984Z,0.51
2022-12-16T17:50:13.679Z,0.51
2022-12-16T17:53:00.014Z,0.48
2022-12-16T17:55:46.292Z,0.46
2022-12-16T17:58:32.781Z,0.40
2022-12-16T18:01:27.357Z,0.38
2022-12-16T18:04:13.791Z,0.40
2022-12-16T18:07:00.076Z,0.40
2022-12-16T18:09:46.540Z,0.38
2022-12-16T18:12:32.902Z,0.36
2022-12-16T18:15:19.407Z,0.36
2022-12-16T18:18:08.425Z,0.36
2022-12-16T18:21:05.192Z,0.36
2022-12-16T18:23:51.714Z,0.35
2022-12-16T18:26:38.100Z,0.29
2022-12-16T18:29:24.300Z,0.29
2022-12-16T18:32:10.566Z,0.29
2022-12-16T18:35:04.495Z,0.29
2022-12-16T18:37:51.484Z,0.28
2022-12-16T18:40:37.822Z,0.27
2022-12-16T18:43:24.018Z,0.23
2022-12-16T18:46:13.991Z,0.26
2022-12-16T18:49:00.291Z,0.25
2022-12-16T18:51:46.431Z,0.25
2022-12-16T18:54:32.934Z,0.25
2022-12-16T18:57:19.781Z,0.23
2022-12-16T19:00:05.907Z,0.26
2022-12-16T19:02:52.715Z,0.25
2022-12-16T19:05:39.051Z,0.25
2022-12-16T19:08:25.296Z,0.26
2022-12-16T19:11:16.028Z,0.23
2022-12-16T19:14:02.417Z,0.21
2022-12-16T19:16:48.667Z,0.21
2022-12-16T19:19:34.885Z,0.20
2022-12-16T19:22:21.068Z,0.18
2022-12-16T19:25:07.464Z,0.20
2022-12-16T19:27:56.681Z,0.19
2022-12-16T19:30:43.298Z,0.19
2022-12-16T19:33:29.639Z,0.16
2022-12-16T19:36:16.482Z,0.17
2022-12-16T19:39:02.880Z,0.17
2022-12-16T19:41:49.043Z,0.16
2022-12-16T19:44:35.347Z,0.14
2022-12-16T19:47:21.895Z,0.14
2022-12-16T19:50:08.021Z,0.17
2022-12-16T19:52:55.981Z,0.18
2022-12-16T19:55:42.436Z,0.17
2022-12-16T19:58:28.798Z,0.15
2022-12-16T20:01:15.081Z,0.15
2022-12-16T20:04:01.439Z,0.14
2022-12-16T20:06:47.988Z,0.13
2022-12-16T20:09:34.406Z,0.15
2022-12-16T20:12:20.996Z,0.15
2022-12-16T20:15:07.558Z,0.17
2022-12-16T20:17:56.135Z,0.19
2022-12-16T20:21:00.284Z,0.17
2022-12-16T20:23:47.280Z,0.17
2022-12-16T20:26:33.681Z,0.15
2022-12-16T20:29:19.995Z,0.15
2022-12-16T20:32:26.057Z,0.14
2022-12-16T20:35:12.378Z,0.14
2022-12-16T20:37:58.957Z,0.11
2022-12-16T20:40:45.426Z,0.12
2022-12-16T20:43:32.264Z,0.10
2022-12-16T20:46:18.495Z,0.10
2022-12-16T20:49:06.157Z,0.10
2022-12-16T20:51:52.448Z,0.08
2022-12-16T20:54:42.523Z,0.06
2022-12-16T20:57:28.816Z,0.05
2022-12-16T21:00:15.144Z,0.09
2022-12-16T21:03:01.494Z,0.08
2022-12-16T21:05:47.758Z,0.09
2022-12-16T21:08:34.293Z,0.06
2022-12-16T21:11:20.498Z,0.04
2022-12-16T21:14:06.964Z,0.05
2022-12-16T21:16:53.368Z,0.04
2022-12-16T21:19:42.342Z,0.04
2022-12-16T21:22:28.500Z,0.00
2022-12-16T21:25:16.713Z,0.02
2022-12-16T21:28:06.160Z,-0.01
2022-12-16T21:30:52.638Z,-0.02
2022-12-16T21:33:40.048Z,-0.05
2022-12-16T21:36:27.038Z,-0.01
2022-12-16T21:39:13.169Z,-0.03
2022-12-16T21:41:59.529Z,0.00
2022-12-16T21:44:45.866Z,-0.05
2022-12-16T21:47:32.344Z,0.01
2022-12-16T21:50:18.889Z,0.03
2022-12-16T21:53:07.575Z,0.06
2022-12-16T21:55:53.817Z,0.08
2022-12-16T21:58:40.623Z,0.10
2022-12-16T22:01:27.134Z,0.08
2022-12-16T22:04:13.663Z,0.07
2022-12-16T22:07:00.253Z,-0.03
2022-12-16T22:09:46.650Z,-0.07
2022-12-16T22:12:33.640Z,-0.10
2022-12-16T22:15:19.844Z,-0.10
2022-12-16T22:18:06.476Z,-0.06
2022-12-16T22:20:54.827Z,-0.01
2022-12-16T22:23:41.451Z,0.02
2022-12-16T22:26:28.048Z,0.01
2022-12-16T22:29:14.761Z,-0.01
2022-12-16T22:32:01.036Z,-0.01
2022-12-16T22:34:47.281Z,0.02
2022-12-16T22:37:33.506Z,0.02
2022-12-16T22:40:19.663Z,0.00
2022-12-16T22:43:07.925Z,-0.02
2022-12-16T22:45:54.167Z,-0.04
2022-12-16T22:48:42.461Z,-0.03
2022-12-16T22:51:32.475Z,-0.01
2022-12-16T22:54:19.373Z,-0.01
2022-12-16T22:57:05.591Z,-0.01
2022-12-16T22:59:51.872Z,-0.03
2022-12-16T23:02:38.446Z,-0.03
2022-12-16T23:05:27.817Z,-0.06
2022-12-16T23:08:14.354Z,-0.21
2022-12-16T23:11:01.060Z,-0.31
2022-12-16T23:13:47.333Z,-0.33
2022-12-16T23:16:33.569Z,-0.26
2022-12-16T23:19:20.229Z,-0.22
2022-12-16T23:22:07.670Z,-0.21
2022-12-16T23:24:53.936Z,-0.21
2022-12-16T23:27:40.454Z,-0.21
2022-12-16T23:30:27.291Z,-0.22
2022-12-16T23:33:18.060Z,-0.22
2022-12-16T23:36:04.617Z,-0.20
2022-12-16T23:38:50.942Z,-0.18
2022-12-16T23:41:39.994Z,-0.19
2022-12-16T23:44:26.278Z,-0.29
2022-12-16T23:47:12.833Z,-0.30
2022-12-16T23:49:59.293Z,-0.30
2022-12-16T23:52:45.847Z,-0.28
2022-12-16T23:55:32.198Z,-0.29
2022-12-16T23:58:33.155Z,-0.28
